Time;durP1;ratioP1;P1;durP2;ratioP2;P2;SDS_P1;SDS_P2;PMS_P1;PMS_P2;Temp;Humidity;BMP_temperature;BMP_pressure;BME280_temperature;BME280_humidity;BME280_pressure;Samples;Min_cycle;Max_cycle;Signal;HPM_P1;HPM_P2
2024/01/30 00:01:37;;;;;;;4.77;1.80;;;7.60;99.90;;;;;;7370298;19;20186;-82
2024/01/30 00:04:03;;;;;;;2.47;2.00;;;7.50;99.90;;;;;;7370499;19;20182;-78
2024/01/30 00:06:28;;;;;;;3.33;2.00;;;7.50;99.90;;;;;;7367597;19;20548;-78
2024/01/30 00:08:54;;;;;;;2.10;1.37;;;7.50;99.90;;;;;;7391336;19;20125;-82
2024/01/30 00:11:20;;;;;;;2.13;1.47;;;7.40;99.90;;;;;;7369669;19;20650;-81
2024/01/30 00:13:46;;;;;;;2.20;1.73;;;7.50;99.90;;;;;;7370404;19;20186;-80
2024/01/30 00:16:25;;;;;;;2.27;1.47;;;7.50;99.90;;;;;;7370934;19;20208;-75
2024/01/30 00:18:54;;;;;;;2.60;1.63;;;7.50;99.90;;;;;;7371212;19;20270;-81
2024/01/30 00:21:20;;;;;;;3.70;1.57;;;7.20;99.90;;;;;;7369665;19;20588;-78
2024/01/30 00:23:46;;;;;;;3.90;2.30;;;7.20;99.90;;;;;;7392269;19;20131;-81
2024/01/30 00:26:12;;;;;;;1.73;1.43;;;7.20;99.90;;;;;;7368597;19;20201;-77
2024/01/30 00:28:38;;;;;;;2.70;1.90;;;7.30;99.90;;;;;;7370438;19;20190;-82
2024/01/30 00:31:04;;;;;;;1.77;1.37;;;7.40;99.90;;;;;;7366787;19;20703;-79
2024/01/30 00:33:30;;;;;;;2.33;1.57;;;7.30;99.90;;;;;;7372293;19;20217;-81
2024/01/30 00:35:56;;;;;;;3.67;2.47;;;7.30;99.90;;;;;;7390055;19;20259;-81
2024/01/30 00:38:22;;;;;;;2.47;1.37;;;7.30;99.90;;;;;;7371162;19;20194;-81
2024/01/30 00:40:48;;;;;;;1.77;1.63;;;7.30;99.90;;;;;;7366541;19;20190;-80
2024/01/30 00:43:13;;;;;;;2.60;1.57;;;7.40;99.90;;;;;;7371556;19;20186;-80
2024/01/30 00:45:39;;;;;;;3.87;2.20;;;7.30;99.90;;;;;;7369193;19;20182;-78
2024/01/30 00:48:05;;;;;;;1.03;1.00;;;7.30;99.90;;;;;;7392441;19;20994;-80
2024/01/30 00:50:31;;;;;;;3.27;1.53;;;7.20;99.90;;;;;;7369798;19;20347;-81
2024/01/30 00:52:56;;;;;;;2.97;2.20;;;7.10;99.90;;;;;;7369871;19;20523;-80
2024/01/30 00:55:22;;;;;;;1.97;1.30;;;6.90;99.90;;;;;;7368132;19;20182;-81
2024/01/30 00:57:48;;;;;;;2.37;1.77;;;6.80;99.90;;;;;;7369937;19;20210;-81
2024/01/30 01:00:16;;;;;;;1.60;1.50;;;7.10;99.90;;;;;;7370169;19;20588;-78
2024/01/30 01:02:42;;;;;;;2.93;2.17;;;7.20;99.90;;;;;;7391475;19;20130;-80
2024/01/30 01:05:08;;;;;;;3.20;1.80;;;7.20;99.90;;;;;;7365588;19;20198;-80
2024/01/30 01:07:34;;;;;;;2.93;2.03;;;7.20;99.90;;;;;;7360976;19;20178;-78
2024/01/30 01:09:59;;;;;;;2.57;1.90;;;7.30;99.90;;;;;;7368294;19;20225;-81
2024/01/30 01:12:25;;;;;;;1.77;1.50;;;7.20;99.90;;;;;;7370114;19;20205;-80
2024/01/30 01:14:51;;;;;;;2.17;1.57;;;6.90;99.90;;;;;;7388754;19;20140;-81
2024/01/30 01:17:18;;;;;;;4.20;1.50;;;6.90;99.90;;;;;;7370273;19;20182;-81
2024/01/30 01:19:43;;;;;;;2.60;1.70;;;7.10;99.90;;;;;;7366965;19;20199;-81
2024/01/30 01:22:09;;;;;;;1.87;1.50;;;7.20;99.90;;;;;;7368225;19;20186;-82
2024/01/30 01:24:36;;;;;;;2.30;1.80;;;7.30;99.90;;;;;;7368820;19;20181;-78
2024/01/30 01:27:01;;;;;;;2.13;1.63;;;7.30;99.90;;;;;;7389060;19;20607;-81
2024/01/30 01:29:28;;;;;;;2.53;1.67;;;7.10;99.90;;;;;;7362493;19;20189;-79
2024/01/30 01:31:57;;;;;;;1.97;1.73;;;7.30;99.90;;;;;;7367545;19;20663;-80
2024/01/30 01:34:23;;;;;;;4.10;1.90;;;7.20;99.90;;;;;;7367063;19;20192;-79
2024/01/30 01:36:50;;;;;;;2.43;1.40;;;7.20;99.90;;;;;;7368205;19;20626;-81
2024/01/30 01:39:16;;;;;;;1.00;0.90;;;7.20;99.90;;;;;;7368504;19;20211;-80
2024/01/30 01:41:41;;;;;;;2.90;1.83;;;7.10;99.90;;;;;;7389514;19;20118;-82
2024/01/30 01:44:08;;;;;;;2.10;1.80;;;7.20;99.90;;;;;;7367921;19;20250;-81
2024/01/30 01:46:34;;;;;;;1.50;1.10;;;7.20;99.90;;;;;;7366858;19;20194;-80
2024/01/30 01:49:04;;;;;;;2.73;1.43;;;7.20;99.90;;;;;;7363389;19;20250;-77
2024/01/30 01:51:33;;;;;;;1.37;1.27;;;7.20;99.90;;;;;;7368702;19;20261;-78
2024/01/30 01:54:01;;;;;;;1.10;1.00;;;7.10;99.90;;;;;;7387281;19;20230;-81
2024/01/30 01:56:30;;;;;;;2.97;1.50;;;7.30;99.90;;;;;;7366814;19;20178;-81
2024/01/30 01:59:00;;;;;;;2.10;1.67;;;6.90;99.90;;;;;;7366133;19;20181;-80
2024/01/30 02:01:27;;;;;;;2.20;1.10;;;6.90;99.90;;;;;;7368658;19;20397;-79
2024/01/30 02:03:53;;;;;;;1.23;1.13;;;7.00;99.90;;;;;;7364654;19;20186;-81
2024/01/30 02:06:19;;;;;;;2.23;1.70;;;7.00;99.90;;;;;;7364521;19;20168;-81
2024/01/30 02:08:44;;;;;;;1.57;1.47;;;7.00;99.90;;;;;;7389235;19;20190;-78
2024/01/30 02:11:11;;;;;;;3.43;1.53;;;6.90;99.90;;;;;;7367273;19;20209;-81
2024/01/30 02:13:37;;;;;;;1.90;1.40;;;6.70;99.90;;;;;;7366720;19;20181;-79
2024/01/30 02:16:02;;;;;;;1.63;1.30;;;6.50;99.90;;;;;;7367584;19;20213;-79
2024/01/30 02:18:28;;;;;;;2.70;1.20;;;6.50;99.90;;;;;;7364207;19;20580;-82
2024/01/30 02:20:58;;;;;;;2.03;1.43;;;6.80;99.90;;;;;;7387714;19;20142;-82
2024/01/30 02:23:25;;;;;;;1.40;1.30;;;6.90;99.90;;;;;;7366074;19;20221;-80
2024/01/30 02:25:52;;;;;;;1.73;1.60;;;7.00;99.90;;;;;;7363990;19;20186;-77
2024/01/30 02:28:19;;;;;;;3.33;1.50;;;7.00;99.90;;;;;;7367842;19;20923;-81
2024/01/30 02:30:45;;;;;;;3.30;1.67;;;6.90;99.90;;;;;;7364101;19;20186;-77
2024/01/30 02:33:11;;;;;;;1.40;1.30;;;6.80;99.90;;;;;;7367330;19;20593;-80
2024/01/30 02:35:36;;;;;;;1.43;1.33;;;6.90;99.90;;;;;;7386875;19;20148;-81
2024/01/30 02:38:02;;;;;;;2.63;1.60;;;7.00;99.90;;;;;;7365561;19;20644;-82
2024/01/30 02:40:28;;;;;;;2.03;1.47;;;6.90;99.90;;;;;;7366010;19;20189;-82
2024/01/30 02:42:53;;;;;;;1.90;1.27;;;6.90;99.90;;;;;;7364609;19;20193;-81
2024/01/30 02:45:19;;;;;;;2.10;1.70;;;6.90;99.90;;;;;;7367914;19;20131;-80
2024/01/30 02:47:46;;;;;;;1.27;1.03;;;6.90;99.90;;;;;;7382717;19;20592;-81
2024/01/30 02:50:11;;;;;;;2.57;1.37;;;6.90;99.90;;;;;;7365813;19;20182;-81
2024/01/30 02:52:37;;;;;;;1.07;0.97;;;6.80;99.90;;;;;;7366886;19;20182;-78
2024/01/30 02:55:03;;;;;;;1.67;1.57;;;6.80;99.90;;;;;;7364829;19;20266;-78
2024/01/30 02:57:29;;;;;;;1.80;1.23;;;6.70;99.90;;;;;;7365043;19;20197;-79
2024/01/30 02:59:54;;;;;;;2.07;1.63;;;6.70;99.90;;;;;;7386064;19;20154;-81
2024/01/30 03:02:20;;;;;;;1.50;1.40;;;6.70;99.90;;;;;;7367066;19;20196;-81
2024/01/30 03:04:46;;;;;;;2.10;1.30;;;6.70;99.90;;;;;;7364093;19;20189;-82
2024/01/30 03:07:11;;;;;;;1.37;1.10;;;6.70;99.90;;;;;;7365554;19;20651;-78
2024/01/30 03:09:37;;;;;;;1.03;0.97;;;6.70;99.90;;;;;;7364153;19;20209;-78
2024/01/30 03:12:04;;;;;;;1.30;1.20;;;6.60;99.90;;;;;;7388656;19;20207;-81
2024/01/30 03:14:32;;;;;;;1.77;1.27;;;6.40;99.90;;;;;;7364919;19;20182;-81
2024/01/30 03:16:58;;;;;;;1.17;1.07;;;6.40;99.90;;;;;;7364112;19;20258;-80
2024/01/30 03:19:24;;;;;;;0.90;0.90;;;6.60;99.90;;;;;;7364854;19;20190;-81
2024/01/30 03:21:50;;;;;;;1.03;0.93;;;6.70;99.90;;;;;;7364905;19;20293;-81
2024/01/30 03:24:15;;;;;;;1.07;0.70;;;6.60;99.90;;;;;;7363899;19;20146;-82
2024/01/30 03:26:41;;;;;;;1.30;1.03;;;6.70;99.90;;;;;;7385341;19;20123;-80
2024/01/30 03:29:07;;;;;;;2.87;1.10;;;6.50;99.90;;;;;;7364794;19;20296;-81
2024/01/30 03:31:33;;;;;;;1.90;1.50;;;6.50;99.90;;;;;;7371128;19;20241;-79
2024/01/30 03:33:58;;;;;;;1.93;1.50;;;6.60;99.90;;;;;;7370866;19;20198;-81
2024/01/30 03:36:24;;;;;;;0.70;0.70;;;6.60;99.90;;;;;;7372099;19;20133;-80
2024/01/30 03:38:50;;;;;;;1.30;1.07;;;6.60;99.90;;;;;;7393863;19;20123;-81
2024/01/30 03:41:15;;;;;;;1.03;0.80;;;6.60;99.90;;;;;;7370321;19;20539;-81
2024/01/30 03:43:41;;;;;;;1.43;0.87;;;6.60;99.90;;;;;;7372069;19;20632;-80
2024/01/30 03:46:07;;;;;;;1.30;0.70;;;6.60;99.90;;;;;;7370016;19;21020;-81
2024/01/30 03:48:32;;;;;;;1.63;1.03;;;6.60;99.90;;;;;;7371176;19;20203;-79
2024/01/30 03:50:58;;;;;;;2.10;1.80;;;6.50;99.90;;;;;;7393251;19;20126;-81
2024/01/30 03:53:23;;;;;;;2.07;1.20;;;6.50;99.90;;;;;;7372101;19;20249;-81
2024/01/30 03:55:49;;;;;;;1.40;1.20;;;6.50;99.90;;;;;;7372042;19;20222;-78
2024/01/30 03:58:15;;;;;;;1.97;1.27;;;6.50;99.90;;;;;;7371139;19;20186;-81
2024/01/30 04:00:40;;;;;;;1.07;0.90;;;6.50;99.90;;;;;;7368733;19;20487;-79
2024/01/30 04:03:06;;;;;;;1.33;1.17;;;6.50;99.90;;;;;;7380807;19;20204;-78
2024/01/30 04:05:32;;;;;;;1.30;1.20;;;6.50;99.90;;;;;;7388256;19;20194;-81
2024/01/30 04:07:58;;;;;;;3.27;1.47;;;6.50;99.90;;;;;;7367105;19;20193;-81
2024/01/30 04:10:24;;;;;;;3.10;1.40;;;6.60;99.90;;;;;;7372100;19;20185;-81
2024/01/30 04:12:51;;;;;;;1.00;0.90;;;6.60;99.90;;;;;;7368876;19;20193;-81
2024/01/30 04:15:17;;;;;;;1.67;1.53;;;6.40;99.90;;;;;;7372345;19;20155;-81
2024/01/30 04:17:43;;;;;;;1.07;0.97;;;6.50;99.90;;;;;;7390870;19;20138;-78
2024/01/30 04:20:14;;;;;;;1.17;0.83;;;6.40;99.90;;;;;;7370119;19;20557;-80
2024/01/30 04:22:39;;;;;;;1.20;1.10;;;6.50;99.90;;;;;;7368856;19;20194;-78
2024/01/30 04:25:05;;;;;;;1.27;1.17;;;6.50;99.90;;;;;;7370003;19;20724;-80
2024/01/30 04:27:31;;;;;;;1.67;1.10;;;6.40;99.90;;;;;;7367739;19;20185;-80
2024/01/30 04:29:56;;;;;;;1.23;0.93;;;6.40;99.90;;;;;;7391081;19;20220;-81
2024/01/30 04:32:22;;;;;;;1.00;0.90;;;6.40;99.90;;;;;;7368377;19;20178;-80
2024/01/30 04:34:47;;;;;;;0.80;0.80;;;6.20;99.90;;;;;;7369773;19;20186;-79
2024/01/30 04:37:13;;;;;;;1.23;0.97;;;6.30;99.90;;;;;;7368738;19;20189;-76
2024/01/30 04:39:39;;;;;;;2.47;1.77;;;6.40;99.90;;;;;;7367701;19;20194;-81
2024/01/30 04:42:04;;;;;;;0.93;0.87;;;6.30;99.90;;;;;;7392851;19;20158;-80
2024/01/30 04:44:30;;;;;;;1.60;0.90;;;6.30;99.90;;;;;;7368876;19;20189;-80
2024/01/30 04:46:58;;;;;;;1.37;0.90;;;6.30;99.90;;;;;;7368664;19;20645;-79
2024/01/30 04:49:24;;;;;;;1.93;1.40;;;6.30;99.90;;;;;;7370203;19;20631;-80
2024/01/30 04:51:50;;;;;;;1.87;1.23;;;6.30;99.90;;;;;;7366436;19;20186;-78
2024/01/30 04:54:15;;;;;;;1.80;1.10;;;6.30;99.90;;;;;;7370093;19;20127;-81
2024/01/30 04:56:41;;;;;;;2.20;1.13;;;6.30;99.90;;;;;;7388209;19;20152;-79
2024/01/30 04:59:08;;;;;;;2.03;1.40;;;6.30;99.90;;;;;;7369182;19;20205;-79
2024/01/30 05:01:34;;;;;;;1.90;1.20;;;6.30;99.90;;;;;;7367526;19;20833;-80
2024/01/30 05:04:00;;;;;;;2.90;1.67;;;6.40;99.90;;;;;;7369119;19;20182;-81
2024/01/30 05:06:28;;;;;;;1.10;1.00;;;6.10;99.90;;;;;;7366136;19;20285;-79
2024/01/30 05:08:54;;;;;;;1.67;1.00;;;6.20;99.90;;;;;;7389802;19;20245;-77
2024/01/30 05:11:20;;;;;;;2.30;1.33;;;6.30;99.90;;;;;;7366569;19;20317;-80
2024/01/30 05:13:45;;;;;;;2.73;1.07;;;6.40;99.90;;;;;;7369045;19;20289;-80
2024/01/30 05:16:11;;;;;;;1.93;1.33;;;6.30;99.90;;;;;;7368382;19;20662;-78
2024/01/30 05:18:36;;;;;;;1.17;1.07;;;6.30;99.90;;;;;;7370157;19;20178;-80
2024/01/30 05:21:02;;;;;;;2.97;1.07;;;6.30;99.90;;;;;;7387525;19;20572;-81
2024/01/30 05:23:28;;;;;;;3.90;1.43;;;6.30;99.90;;;;;;7369235;19;20207;-80
2024/01/30 05:25:53;;;;;;;2.77;2.07;;;6.30;99.90;;;;;;7365989;19;20192;-79
2024/01/30 05:28:19;;;;;;;2.37;1.93;;;6.30;99.90;;;;;;7367955;19;20570;-80
2024/01/30 05:30:45;;;;;;;1.20;0.87;;;6.20;99.90;;;;;;7365828;19;20174;-81
2024/01/30 05:33:12;;;;;;;2.17;1.70;;;6.20;99.90;;;;;;7369634;19;20130;-79
2024/01/30 05:35:37;;;;;;;2.20;1.13;;;6.30;99.90;;;;;;7389400;19;20126;-80
2024/01/30 05:38:04;;;;;;;1.43;1.20;;;6.30;99.90;;;;;;7367407;19;20309;-80
2024/01/30 05:40:30;;;;;;;2.87;1.90;;;6.30;99.90;;;;;;7367855;19;20192;-80
2024/01/30 05:42:55;;;;;;;1.33;1.17;;;6.30;99.90;;;;;;7365995;19;20214;-80
2024/01/30 05:45:23;;;;;;;1.07;0.93;;;6.30;99.90;;;;;;7368743;19;20460;-80
2024/01/30 05:47:48;;;;;;;1.47;1.10;;;6.40;99.90;;;;;;7385264;19;20156;-79
2024/01/30 05:50:14;;;;;;;1.73;1.50;;;6.20;99.90;;;;;;7366322;19;20194;-78
2024/01/30 05:52:40;;;;;;;1.23;1.10;;;6.30;99.90;;;;;;7366228;19;20770;-80
2024/01/30 05:55:06;;;;;;;2.20;1.13;;;6.30;99.90;;;;;;7366510;19;20189;-81
2024/01/30 05:57:32;;;;;;;3.37;2.10;;;6.30;99.90;;;;;;7368158;19;20253;-81
2024/01/30 05:59:58;;;;;;;4.60;1.63;;;6.40;99.90;;;;;;7386207;19;20234;-81
2024/01/30 06:02:23;;;;;;;2.17;1.73;;;6.40;99.90;;;;;;7367910;19;20186;-80
2024/01/30 06:04:49;;;;;;;1.77;1.07;;;6.40;99.90;;;;;;7364483;19;20777;-80
2024/01/30 06:07:14;;;;;;;2.30;1.50;;;6.30;99.90;;;;;;7366076;19;20186;-77
2024/01/30 06:09:40;;;;;;;1.27;1.17;;;6.10;99.90;;;;;;7364730;19;20295;-80
2024/01/30 06:12:06;;;;;;;1.53;1.03;;;6.00;99.90;;;;;;7378606;19;20572;-80
2024/01/30 06:14:32;;;;;;;1.53;1.33;;;6.20;99.90;;;;;;7386749;19;20154;-80
2024/01/30 06:16:59;;;;;;;2.07;1.30;;;6.20;99.90;;;;;;7367265;19;20178;-80
2024/01/30 06:19:24;;;;;;;2.00;1.30;;;6.10;99.90;;;;;;7366590;19;20186;-76
2024/01/30 06:21:50;;;;;;;2.17;1.90;;;6.20;99.90;;;;;;7366280;19;20725;-80
2024/01/30 06:24:16;;;;;;;1.20;1.00;;;6.20;99.90;;;;;;7364776;19;20140;-79
2024/01/30 06:26:41;;;;;;;1.43;1.30;;;6.10;99.90;;;;;;7385823;19;20153;-79
2024/01/30 06:29:07;;;;;;;0.97;0.87;;;6.10;99.90;;;;;;7364476;19;20185;-79
2024/01/30 06:31:33;;;;;;;1.03;0.90;;;6.20;99.90;;;;;;7362786;19;20294;-78
2024/01/30 06:33:58;;;;;;;1.93;1.33;;;5.80;99.90;;;;;;7365628;19;20689;-79
2024/01/30 06:36:24;;;;;;;0.93;0.83;;;5.90;99.90;;;;;;7363097;19;20130;-81
2024/01/30 06:38:50;;;;;;;1.47;1.27;;;5.90;99.90;;;;;;7388731;19;20158;-79
2024/01/30 06:41:15;;;;;;;3.20;1.23;;;6.10;99.90;;;;;;7366992;19;20213;-79
2024/01/30 06:43:41;;;;;;;0.87;0.87;;;6.20;99.90;;;;;;7364587;19;20182;-78
2024/01/30 06:46:06;;;;;;;1.20;1.00;;;6.20;99.90;;;;;;7362927;19;20207;-78
2024/01/30 06:48:32;;;;;;;2.10;1.37;;;6.10;99.90;;;;;;7365381;19;20200;-77
2024/01/30 06:50:58;;;;;;;1.50;1.17;;;6.10;99.90;;;;;;7386852;19;20147;-78
2024/01/30 06:53:24;;;;;;;1.23;1.00;;;6.00;99.90;;;;;;7364950;19;20651;-79
2024/01/30 06:55:52;;;;;;;0.87;0.87;;;5.80;99.90;;;;;;7363957;19;20517;-79
2024/01/30 06:58:17;;;;;;;2.50;1.77;;;5.40;99.90;;;;;;7365946;19;20194;-77
2024/01/30 07:00:43;;;;;;;0.97;0.97;;;5.70;99.90;;;;;;7364960;19;20221;-77
2024/01/30 07:03:08;;;;;;;1.10;1.00;;;5.90;99.90;;;;;;7364230;19;20135;-79
2024/01/30 07:05:34;;;;;;;1.47;1.30;;;6.10;99.90;;;;;;7389611;19;20178;-81
2024/01/30 07:08:00;;;;;;;2.63;1.40;;;6.20;99.90;;;;;;7371309;19;20678;-80
2024/01/30 07:10:26;;;;;;;1.17;0.90;;;6.20;99.90;;;;;;7372952;19;20181;-78
2024/01/30 07:12:51;;;;;;;1.93;1.30;;;6.30;99.90;;;;;;7368370;19;20212;-77
2024/01/30 07:15:19;;;;;;;3.33;2.43;;;6.40;99.90;;;;;;7372062;19;20379;-79
2024/01/30 07:17:45;;;;;;;2.00;1.73;;;6.40;99.90;;;;;;7393410;19;20151;-79
2024/01/30 07:20:13;;;;;;;1.37;1.10;;;6.30;99.90;;;;;;7372889;19;20273;-80
2024/01/30 07:22:38;;;;;;;1.40;1.30;;;6.40;99.90;;;;;;7367164;19;20189;-78
2024/01/30 07:25:04;;;;;;;3.13;1.67;;;6.30;99.90;;;;;;7368539;19;20174;-81
2024/01/30 07:27:30;;;;;;;1.13;1.00;;;6.30;99.90;;;;;;7368698;19;20226;-81
2024/01/30 07:29:55;;;;;;;0.90;0.90;;;6.40;99.90;;;;;;7391763;19;20139;-78
2024/01/30 07:32:21;;;;;;;1.83;1.00;;;6.40;99.90;;;;;;7368908;19;20185;-79
2024/01/30 07:34:47;;;;;;;1.43;1.33;;;6.30;99.90;;;;;;7370647;19;20666;-78
2024/01/30 07:37:15;;;;;;;1.97;1.67;;;6.40;99.90;;;;;;7371248;19;20558;-78
2024/01/30 07:39:41;;;;;;;4.17;1.90;;;6.50;99.90;;;;;;7368416;19;21106;-82
2024/01/30 07:42:07;;;;;;;1.50;1.40;;;6.40;99.90;;;;;;7376953;19;20146;-81
2024/01/30 07:44:32;;;;;;;3.23;1.53;;;6.40;99.90;;;;;;7392140;19;20143;-79
2024/01/30 07:46:59;;;;;;;2.37;1.57;;;6.50;99.90;;;;;;7370472;19;20190;-80
2024/01/30 07:49:25;;;;;;;3.90;1.33;;;6.50;99.90;;;;;;7371563;19;20628;-80
2024/01/30 07:51:50;;;;;;;1.50;1.40;;;6.50;99.90;;;;;;7368999;19;20190;-81
2024/01/30 07:54:17;;;;;;;3.27;1.23;;;6.60;99.90;;;;;;7370702;19;20135;-77
2024/01/30 07:56:43;;;;;;;1.87;1.43;;;6.60;99.90;;;;;;7390695;19;20190;-80
2024/01/30 07:59:11;;;;;;;1.87;1.07;;;6.60;99.90;;;;;;7372874;19;20193;-79
2024/01/30 08:01:37;;;;;;;1.93;1.80;;;6.60;99.90;;;;;;7369588;19;20178;-79
2024/01/30 08:04:03;;;;;;;2.13;1.53;;;6.60;99.90;;;;;;7372850;19;20190;-79
2024/01/30 08:06:29;;;;;;;1.87;1.67;;;6.70;99.90;;;;;;7366789;19;20202;-80
2024/01/30 08:08:54;;;;;;;2.37;1.47;;;6.60;99.90;;;;;;7393542;19;20210;-79
2024/01/30 08:11:25;;;;;;;2.60;1.60;;;6.60;99.90;;;;;;7368839;19;20213;-80
2024/01/30 08:13:51;;;;;;;3.67;2.43;;;6.80;99.90;;;;;;7371579;19;20178;-80
2024/01/30 08:16:17;;;;;;;2.67;2.27;;;6.80;99.90;;;;;;7370079;19;20197;-80
2024/01/30 08:18:43;;;;;;;2.23;1.73;;;6.90;99.90;;;;;;7370497;19;20209;-79
2024/01/30 08:21:09;;;;;;;1.33;1.20;;;6.90;99.90;;;;;;7368757;19;22351;-81
2024/01/30 08:23:35;;;;;;;1.63;1.30;;;6.90;99.90;;;;;;7392582;19;20163;-79
2024/01/30 08:26:00;;;;;;;2.17;1.97;;;6.90;99.90;;;;;;7370757;19;20197;-77
2024/01/30 08:28:26;;;;;;;1.93;1.47;;;7.00;99.90;;;;;;7369943;19;20517;-78
2024/01/30 08:30:52;;;;;;;2.10;1.70;;;7.10;99.90;;;;;;7368439;19;20198;-77
2024/01/30 08:33:18;;;;;;;3.63;1.93;;;7.10;99.90;;;;;;7371245;19;20524;-80
2024/01/30 08:35:43;;;;;;;2.57;1.93;;;7.20;99.90;;;;;;7390237;19;20141;-79
2024/01/30 08:38:09;;;;;;;1.43;1.30;;;7.20;99.90;;;;;;7369949;19;20186;-80
2024/01/30 08:40:34;;;;;;;2.13;1.80;;;7.30;99.90;;;;;;7371031;19;20214;-79
2024/01/30 08:43:00;;;;;;;2.50;1.83;;;7.30;99.90;;;;;;7368016;19;20189;-77
2024/01/30 08:45:26;;;;;;;2.63;1.63;;;7.30;99.90;;;;;;7371246;19;20378;-79
2024/01/30 08:47:55;;;;;;;1.90;1.53;;;7.30;99.90;;;;;;7388533;19;20130;-81
2024/01/30 08:50:20;;;;;;;2.33;1.80;;;7.40;99.90;;;;;;7365297;19;20180;-79
2024/01/30 08:52:46;;;;;;;2.90;1.73;;;7.50;99.90;;;;;;7370371;19;20182;-80
2024/01/30 08:55:12;;;;;;;3.13;2.03;;;7.40;99.90;;;;;;7370107;19;20189;-79
2024/01/30 08:57:38;;;;;;;2.23;1.63;;;7.50;99.90;;;;;;7369825;19;20185;-80
2024/01/30 09:00:06;;;;;;;2.73;2.13;;;7.50;99.90;;;;;;7391623;19;20156;-82
2024/01/30 09:02:32;;;;;;;2.07;1.63;;;7.60;99.90;;;;;;7369250;19;20181;-81
2024/01/30 09:04:58;;;;;;;3.73;2.93;;;7.60;99.90;;;;;;7364756;19;20708;-76
2024/01/30 09:07:26;;;;;;;3.17;1.90;;;7.60;99.90;;;;;;7368249;19;20190;-77
2024/01/30 09:09:52;;;;;;;2.67;2.27;;;7.60;99.90;;;;;;7367105;19;20186;-81
2024/01/30 09:12:18;;;;;;;3.97;1.90;;;7.60;99.90;;;;;;7366353;19;20162;-80
2024/01/30 09:14:44;;;;;;;2.10;1.80;;;7.70;99.90;;;;;;7388491;19;20453;-79
2024/01/30 09:17:10;;;;;;;3.13;2.47;;;7.80;99.90;;;;;;7373859;19;20185;-79
2024/01/30 09:19:36;;;;;;;2.23;1.97;;;7.80;99.90;;;;;;7377787;19;20196;-79
2024/01/30 09:22:02;;;;;;;1.63;1.40;;;7.90;99.90;;;;;;7377890;19;20253;-79
2024/01/30 09:24:27;;;;;;;2.67;1.90;;;7.90;99.90;;;;;;7377023;19;20219;-79
2024/01/30 09:26:53;;;;;;;1.80;1.70;;;7.90;99.90;;;;;;7392582;19;20206;-80
2024/01/30 09:29:18;;;;;;;2.40;1.97;;;8.00;99.90;;;;;;7372839;19;20193;-79
2024/01/30 09:31:45;;;;;;;4.00;2.07;;;8.00;99.90;;;;;;7374409;19;20588;-80
2024/01/30 09:34:11;;;;;;;4.43;2.00;;;8.10;99.90;;;;;;7374436;19;20650;-80
2024/01/30 09:36:36;;;;;;;3.90;2.10;;;8.10;99.90;;;;;;7376236;19;20192;-78
2024/01/30 09:39:03;;;;;;;1.47;1.30;;;8.10;99.90;;;;;;7391076;19;20131;-78
2024/01/30 09:41:32;;;;;;;2.70;1.43;;;8.20;99.90;;;;;;7364845;19;20194;-80
2024/01/30 09:43:57;;;;;;;1.73;1.60;;;8.20;99.90;;;;;;7367215;19;20667;-80
2024/01/30 09:46:27;;;;;;;4.57;1.67;;;8.30;99.90;;;;;;7365775;19;20229;-78
2024/01/30 09:48:55;;;;;;;1.63;1.47;;;8.50;99.90;;;;;;7360921;19;20218;-78
2024/01/30 09:51:22;;;;;;;5.67;2.40;;;8.50;99.90;;;;;;7367914;19;20485;-78
2024/01/30 09:53:49;;;;;;;1.73;1.63;;;8.50;99.90;;;;;;7386625;19;20127;-80
2024/01/30 09:56:15;;;;;;;3.37;2.00;;;8.50;99.90;;;;;;7365496;19;20784;-80
2024/01/30 09:58:41;;;;;;;1.53;1.33;;;8.60;99.90;;;;;;7368338;19;20715;-79
2024/01/30 10:01:07;;;;;;;1.87;1.77;;;8.70;99.90;;;;;;7366007;19;20207;-78
2024/01/30 10:03:33;;;;;;;2.13;1.80;;;8.70;99.90;;;;;;7368009;19;20186;-79
2024/01/30 10:05:59;;;;;;;2.33;1.90;;;8.80;99.90;;;;;;7390537;19;20185;-80
2024/01/30 10:08:26;;;;;;;3.07;2.07;;;8.80;99.90;;;;;;7364930;19;20190;-79
2024/01/30 10:10:52;;;;;;;3.23;1.87;;;8.80;99.90;;;;;;7365176;19;20178;-81
2024/01/30 10:13:18;;;;;;;2.87;2.27;;;8.90;99.90;;;;;;7374063;19;20198;-82
2024/01/30 10:15:45;;;;;;;2.93;2.27;;;8.90;99.90;;;;;;7366568;19;20181;-79
2024/01/30 10:18:10;;;;;;;2.73;1.87;;;9.00;99.90;;;;;;7366599;19;20150;-80
2024/01/30 10:20:36;;;;;;;4.13;2.10;;;9.00;99.90;;;;;;7395234;19;20409;-82
2024/01/30 10:23:03;;;;;;;2.30;1.53;;;9.10;99.90;;;;;;7365124;19;20189;-81
2024/01/30 10:25:30;;;;;;;2.13;1.80;;;9.10;99.90;;;;;;7368170;19;20182;-80
2024/01/30 10:27:56;;;;;;;3.30;1.90;;;9.20;99.90;;;;;;7364835;19;20182;-79
2024/01/30 10:30:22;;;;;;;1.80;1.63;;;9.20;99.90;;;;;;7360752;19;20216;-77
2024/01/30 10:32:48;;;;;;;2.07;1.83;;;9.30;99.90;;;;;;7388843;19;20127;-78
2024/01/30 10:35:14;;;;;;;2.70;2.10;;;9.50;99.90;;;;;;7365161;19;20182;-80
2024/01/30 10:37:43;;;;;;;2.60;2.40;;;9.30;99.90;;;;;;7368178;19;20199;-77
2024/01/30 10:40:12;;;;;;;3.47;3.07;;;9.30;99.90;;;;;;7371451;19;20188;-78
2024/01/30 10:42:44;;;;;;;2.00;1.80;;;9.40;99.90;;;;;;7373241;19;20182;-77
2024/01/30 10:45:13;;;;;;;2.83;2.20;;;9.50;99.90;;;;;;7375162;19;20149;-77
2024/01/30 10:48:00;;;;;;;2.83;1.80;;;9.60;99.90;;;;;;7392620;19;20529;-79
2024/01/30 10:50:26;;;;;;;2.70;1.77;;;9.50;99.90;;;;;;7373398;19;20197;-80
2024/01/30 10:52:53;;;;;;;1.90;1.77;;;9.50;99.90;;;;;;7373304;19;20194;-78
2024/01/30 10:55:19;;;;;;;3.60;2.40;;;9.70;99.90;;;;;;7372909;19;20185;-78
2024/01/30 10:57:44;;;;;;;3.20;2.03;;;9.70;99.90;;;;;;7373697;19;20185;-77
2024/01/30 11:00:12;;;;;;;4.03;1.60;;;9.80;99.90;;;;;;7372411;19;20133;-78
2024/01/30 11:02:43;;;;;;;2.67;1.93;;;9.80;99.90;;;;;;7395504;19;20149;-77
2024/01/30 11:05:09;;;;;;;4.23;2.20;;;9.90;99.90;;;;;;7371188;19;21023;-78
2024/01/30 11:07:35;;;;;;;2.17;1.57;;;9.90;99.90;;;;;;7372783;19;20196;-78
2024/01/30 11:10:03;;;;;;;4.20;2.20;;;9.90;99.90;;;;;;7372294;19;20662;-78
2024/01/30 11:12:33;;;;;;;2.33;1.80;;;10.00;99.90;;;;;;7373924;19;20182;-79
2024/01/30 11:15:16;;;;;;;2.87;2.13;;;10.10;99.90;;;;;;7395559;19;20177;-78
2024/01/30 11:17:51;;;;;;;3.83;2.53;;;10.10;99.90;;;;;;7374179;19;20635;-83
2024/01/30 11:20:21;;;;;;;3.43;2.40;;;10.20;99.90;;;;;;7375582;19;20245;-76
2024/01/30 11:22:49;;;;;;;2.97;2.47;;;10.20;99.90;;;;;;7371582;19;20185;-77
2024/01/30 11:25:16;;;;;;;3.50;2.13;;;10.00;99.90;;;;;;7371272;19;20186;-78
2024/01/30 11:27:45;;;;;;;3.07;2.37;;;10.10;99.90;;;;;;7369117;19;20182;-76
2024/01/30 11:30:31;;;;;;;1.77;1.50;;;10.30;99.90;;;;;;7371141;19;20146;-78
2024/01/30 11:33:13;;;;;;;2.90;2.05;;;10.20;99.90;;;;;;7394944;19;20154;-79
2024/01/30 11:35:44;;;;;;;2.63;2.23;;;10.30;99.90;;;;;;7372124;19;20170;-79
2024/01/30 11:38:13;;;;;;;2.47;1.97;;;10.40;99.90;;;;;;7370203;19;20186;-81
2024/01/30 11:40:39;;;;;;;4.00;2.63;;;10.40;99.90;;;;;;7371371;19;20672;-77
2024/01/30 11:43:06;;;;;;;4.30;2.90;;;10.50;99.90;;;;;;7371032;19;20259;-78
2024/01/30 11:45:33;;;;;;;3.27;2.40;;;10.40;99.90;;;;;;7372078;19;20190;-80
2024/01/30 11:48:03;;;;;;;3.93;2.43;;;10.50;99.90;;;;;;7391133;19;20139;-82
2024/01/30 11:50:32;;;;;;;4.33;2.73;;;10.50;99.90;;;;;;7372116;19;20190;-82
2024/01/30 11:53:00;;;;;;;4.40;2.20;;;10.40;99.90;;;;;;7375447;19;20189;-80
2024/01/30 11:55:25;;;;;;;5.60;2.70;;;10.50;99.90;;;;;;7375525;19;20181;-83
2024/01/30 11:57:54;;;;;;;3.00;1.90;;;10.60;99.90;;;;;;7371849;19;20233;-82
2024/01/30 12:00:20;;;;;;;3.37;2.23;;;10.50;99.90;;;;;;7371315;19;20235;-78
2024/01/30 12:02:57;;;;;;;2.47;2.10;;;10.70;99.90;;;;;;7393499;19;20250;-82
2024/01/30 12:05:23;;;;;;;2.20;1.73;;;10.70;99.90;;;;;;7370300;19;20214;-84
2024/01/30 12:07:49;;;;;;;2.43;2.17;;;10.70;99.90;;;;;;7372550;19;20190;-84
2024/01/30 12:10:15;;;;;;;4.07;2.67;;;10.70;99.90;;;;;;7372031;19;20261;-83
2024/01/30 12:12:49;;;;;;;2.85;1.95;;;10.90;99.90;;;;;;7371326;19;20186;-81
2024/01/30 12:15:15;;;;;;;3.00;2.37;;;10.90;99.90;;;;;;7373010;19;20595;-80
2024/01/30 12:17:41;;;;;;;3.00;2.30;;;11.00;99.90;;;;;;7396129;19;20131;-86
2024/01/30 12:20:11;;;;;;;4.87;2.43;;;11.00;99.90;;;;;;7371700;19;20186;-89
2024/01/30 12:22:48;;;;;;;3.57;2.37;;;10.90;99.90;;;;;;7372563;19;20185;-83
2024/01/30 12:25:15;;;;;;;3.50;2.27;;;10.90;99.90;;;;;;7373564;19;20201;-85
2024/01/30 12:27:45;;;;;;;4.10;2.17;;;11.00;99.90;;;;;;7371043;19;20186;-81
2024/01/30 12:30:14;;;;;;;2.73;2.27;;;11.00;99.90;;;;;;7371546;19;20150;-83
2024/01/30 12:32:42;;;;;;;3.13;2.07;;;11.10;99.90;;;;;;7393453;19;20119;-84
2024/01/30 12:35:10;;;;;;;3.70;2.50;;;11.10;99.90;;;;;;7372799;19;20186;-83
2024/01/30 12:37:37;;;;;;;2.60;1.93;;;11.10;99.90;;;;;;7372550;19;20186;-82
2024/01/30 12:40:03;;;;;;;3.07;2.33;;;11.10;99.90;;;;;;7370490;19;20233;-81
2024/01/30 12:42:28;;;;;;;2.78;1.70;;;11.00;99.90;;;;;;7371446;19;20643;-81
2024/01/30 12:44:54;;;;;;;3.90;1.90;;;11.00;99.90;;;;;;7391245;19;20150;-85
2024/01/30 12:47:23;;;;;;;3.33;2.53;;;11.10;99.90;;;;;;7377912;19;20325;-84
2024/01/30 12:49:48;;;;;;;4.50;2.70;;;11.30;99.90;;;;;;7373285;19;20255;-82
2024/01/30 12:52:16;;;;;;;4.60;2.45;;;11.40;99.90;;;;;;7371403;19;20182;-84